Time;durP1;ratioP1;P1;durP2;ratioP2;P2;SDS_P1;SDS_P2;PMS_P1;PMS_P2;Temp;Humidity;BMP_temperature;BMP_pressure;BME280_temperature;BME280_humidity;BME280_pressure;Samples;Min_cycle;Max_cycle;Signal;HPM_P1;HPM_P2
2023/07/09 00:00:55;;;;;;;5.37;3.83;;;21.10;99.90;;;;;;5020437;28;20491;-89
2023/07/09 00:03:23;;;;;;;4.73;4.30;;;21.00;99.90;;;;;;5020524;28;20447;-90
2023/07/09 00:05:50;;;;;;;6.37;3.30;;;;;;;;;;5042152;23;20543;-90
2023/07/09 00:08:33;;;;;;;8.07;5.47;;;20.80;99.90;;;;;;5057408;28;20453;-90
2023/07/09 00:11:02;;;;;;;5.20;4.23;;;21.10;99.90;;;;;;5053540;28;20402;-90
2023/07/09 00:13:29;;;;;;;4.60;4.17;;;20.70;99.90;;;;;;5059774;28;20478;-90
2023/07/09 00:16:03;;;;;;;4.30;3.60;;;20.80;99.90;;;;;;5051402;28;20463;-90
2023/07/09 00:18:31;;;;;;;4.47;4.07;;;20.80;99.90;;;;;;5022721;28;20466;-90
2023/07/09 00:20:59;;;;;;;4.57;4.10;;;;;;;;;;5021556;28;20983;-90
2023/07/09 00:23:29;;;;;;;6.30;4.37;;;20.80;99.90;;;;;;5019992;28;20838;-90
2023/07/09 00:25:57;;;;;;;3.93;3.63;;;;;;;;;;5020803;28;20463;-90
2023/07/09 00:28:25;;;;;;;5.30;3.70;;;;;;;;;;5025486;28;20435;-89
2023/07/09 00:30:52;;;;;;;4.17;3.50;;;;;;;;;;5032848;28;20474;-89
2023/07/09 00:33:27;;;;;;;4.10;3.70;;;;;;;;;;5034541;28;20842;-90
2023/07/09 00:36:16;;;;;;;6.17;3.93;;;20.80;99.90;;;;;;5032747;28;20443;-89
2023/07/09 00:38:52;;;;;;;7.43;6.63;;;20.70;99.90;;;;;;5030308;28;20445;-90
2023/07/09 00:44:43;;;;;;;4.43;4.00;;;20.70;99.90;;;;;;5031046;28;20442;-90
2023/07/09 00:47:27;;;;;;;5.13;4.63;;;20.70;99.90;;;;;;5030609;28;20563;-89
2023/07/09 00:50:41;;;;;;;6.30;4.50;;;20.70;99.90;;;;;;5026609;28;20527;-90
2023/07/09 00:53:25;;;;;;;4.13;3.73;;;20.60;99.90;;;;;;5027460;28;20450;-90
2023/07/09 00:58:51;;;;;;;7.97;6.40;;;;;;;;;;5024510;28;20428;-90
2023/07/09 01:01:30;;;;;;;6.63;4.47;;;20.60;99.90;;;;;;5021267;28;20475;-90
2023/07/09 01:04:13;;;;;;;4.83;3.77;;;20.60;99.90;;;;;;5021830;28;20931;-90
2023/07/09 01:09:52;;;;;;;5.83;5.27;;;20.70;99.90;;;;;;5033070;28;20443;-90
2023/07/09 01:12:36;;;;;;;4.80;4.40;;;20.50;99.90;;;;;;5039741;28;20444;-89
2023/07/09 01:15:16;;;;;;;7.60;3.87;;;20.40;99.90;;;;;;5039520;28;20416;-88
2023/07/09 01:17:56;;;;;;;4.60;4.10;;;20.40;99.90;;;;;;5039431;28;20422;-88
2023/07/09 01:20:26;;;;;;;4.53;4.10;;;;;;;;;;5036438;28;20424;-88
2023/07/09 01:25:58;;;;;;;4.80;4.23;;;20.20;99.90;;;;;;5029240;28;20467;-90
2023/07/09 01:28:28;;;;;;;5.03;4.40;;;20.20;99.90;;;;;;5033079;28;20420;-90
2023/07/09 01:31:04;;;;;;;6.70;5.30;;;20.20;99.90;;;;;;5037124;28;20447;-90
2023/07/09 01:33:39;;;;;;;6.40;4.80;;;;;;;;;;5027332;28;20923;-90
2023/07/09 01:36:06;;;;;;;7.27;4.80;;;;;;;;;;5022843;28;20963;-90
2023/07/09 01:38:37;;;;;;;4.70;4.03;;;20.00;99.90;;;;;;5023454;28;20511;-89
2023/07/09 01:41:13;;;;;;;5.30;3.70;;;20.00;99.90;;;;;;5029608;28;20471;-89
2023/07/09 01:43:41;;;;;;;8.03;4.57;;;;;;;;;;5027163;28;20466;-90
2023/07/09 01:46:21;;;;;;;4.67;4.13;;;20.00;99.90;;;;;;5030691;28;20472;-90
2023/07/09 01:48:59;;;;;;;4.47;3.90;;;19.90;99.90;;;;;;5024883;28;20458;-89
2023/07/09 01:51:28;;;;;;;7.40;4.90;;;;;;;;;;5026851;28;20462;-89
2023/07/09 01:54:02;;;;;;;5.57;4.90;;;19.60;99.90;;;;;;5028549;28;20451;-89
2023/07/09 01:56:38;;;;;;;4.57;4.17;;;19.70;99.90;;;;;;5032751;28;20473;-89
2023/07/09 01:59:12;;;;;;;6.17;4.30;;;;;;;;;;5031050;28;20505;-89
2023/07/09 02:01:57;;;;;;;8.60;5.53;;;19.70;99.90;;;;;;5034070;28;20479;-90
2023/07/09 02:04:32;;;;;;;5.10;4.60;;;;;;;;;;5038877;28;20450;-89
2023/07/09 02:09:52;;;;;;;4.70;4.40;;;19.70;1.00;;;;;;5037080;28;20458;-88
2023/07/09 02:12:42;;;;;;;4.77;4.23;;;19.40;99.90;;;;;;5037243;28;20435;-90
2023/07/09 02:18:10;;;;;;;5.27;4.70;;;19.40;99.90;;;;;;5036066;28;20455;-88
2023/07/09 02:20:49;;;;;;;5.10;4.70;;;;;;;;;;5038708;28;20427;-89
2023/07/09 02:23:37;;;;;;;5.33;4.83;;;19.40;99.90;;;;;;5034708;28;20420;-90
2023/07/09 02:26:13;;;;;;;5.00;4.33;;;19.10;1.00;;;;;;5029465;28;20471;-90
2023/07/09 02:28:43;;;;;;;4.80;4.40;;;;;;;;;;5026012;28;20427;-89
2023/07/09 02:31:29;;;;;;;6.67;4.90;;;19.20;1.00;;;;;;5022934;28;20463;-89
2023/07/09 02:34:05;;;;;;;5.87;5.17;;;19.20;99.90;;;;;;5020878;28;20447;-90
2023/07/09 02:36:42;;;;;;;5.30;4.70;;;;;;;;;;5022145;28;20510;-90
2023/07/09 02:42:14;;;;;;;5.80;5.30;;;19.00;99.90;;;;;;5011027;28;20477;-90
2023/07/09 02:44:42;;;;;;;7.20;5.27;;;;;;;;;;5023109;28;20471;-90
2023/07/09 02:47:18;;;;;;;5.20;4.80;;;19.00;99.90;;;;;;5025122;28;20482;-90
2023/07/09 02:49:47;;;;;;;5.63;4.70;;;;;;;;;;5024587;28;20444;-89
2023/07/09 02:52:43;;;;;;;5.60;5.03;;;18.90;99.90;;;;;;5025106;28;20462;-90
2023/07/09 02:55:15;;;;;;;7.10;4.80;;;18.80;99.90;;;;;;5025351;28;20482;-89
2023/07/09 02:57:51;;;;;;;6.30;5.40;;;18.80;99.90;;;;;;5032615;28;20455;-88
2023/07/09 03:00:30;;;;;;;5.43;5.03;;;18.80;99.90;;;;;;5023953;28;20455;-89
2023/07/09 03:11:42;;;;;;;7.67;5.40;;;18.70;99.90;;;;;;5016165;28;20439;-90
2023/07/09 03:14:35;;;;;;;5.53;5.00;;;18.60;99.90;;;;;;5028310;28;20877;-90
2023/07/09 03:17:12;;;;;;;5.10;4.70;;;;;;;;;;5013347;28;20516;-89
2023/07/09 03:43:36;;;;;;;;;;;;;;;;;;;;;
2023/07/09 03:52:10;;;;;;;5.60;4.67;;;18.80;99.90;;;;;;5017629;28;20590;-90
2023/07/09 03:55:06;;;;;;;6.07;4.53;;;19.10;99.90;;;;;;5020164;28;20887;-90
2023/07/09 03:57:46;;;;;;;5.20;4.73;;;19.20;99.90;;;;;;5021968;28;20487;-89
2023/07/09 04:02:59;;;;;;;5.00;4.60;;;;;;;;;;5035808;28;20479;-88
2023/07/09 04:05:30;;;;;;;9.20;4.60;;;19.00;99.90;;;;;;5040793;28;20428;-88
2023/07/09 04:07:58;;;;;;;5.63;4.80;;;;;;;;;;5040269;28;20443;-88
2023/07/09 04:10:31;;;;;;;7.97;5.50;;;;;;;;;;5037969;28;20450;-88
2023/07/09 04:12:59;;;;;;;6.33;5.73;;;;;;;;;;5023866;28;20440;-88
2023/07/09 04:15:27;;;;;;;7.10;4.90;;;;;;;;;;5024315;28;20440;-88
2023/07/09 04:17:57;;;;;;;6.23;5.23;;;;;;;;;;5023633;28;20447;-89
2023/07/09 04:20:34;;;;;;;6.03;4.50;;;17.60;99.90;;;;;;5039777;28;20430;-88
2023/07/09 04:23:02;;;;;;;5.73;4.60;;;;;;;;;;5040116;28;20463;-88
2023/07/09 04:25:29;;;;;;;4.97;4.50;;;;;;;;;;5023505;28;20446;-89
2023/07/09 04:27:56;;;;;;;5.00;4.50;;;19.60;99.90;;;;;;5023310;28;20447;-88
2023/07/09 04:30:34;;;;;;;6.67;4.50;;;19.70;99.90;;;;;;5030623;28;20432;-89
2023/07/09 04:33:01;;;;;;;7.27;4.63;;;;;;;;;;5036280;28;20446;-89
2023/07/09 04:35:31;;;;;;;5.20;4.70;;;19.80;99.90;;;;;;5035577;28;20452;-90
2023/07/09 04:37:58;;;;;;;5.97;4.50;;;;;;;;;;5034611;28;20463;-89
2023/07/09 04:40:27;;;;;;;5.20;4.80;;;;;;;;;;5022932;28;20452;-89
2023/07/09 04:42:54;;;;;;;6.00;5.10;;;;;;;;;;5022130;28;20490;-89
2023/07/09 04:45:37;;;;;;;5.20;4.50;;;20.00;99.90;;;;;;5019459;28;20447;-89
2023/07/09 04:48:32;;;;;;;5.20;4.70;;;20.10;99.90;;;;;;5021758;28;20456;-89
2023/07/09 04:51:14;;;;;;;5.43;4.37;;;20.10;99.90;;;;;;5001312;28;20473;-89
2023/07/09 04:57:10;;;;;;;5.00;4.50;;;19.80;99.90;;;;;;4993056;28;20488;-91
2023/07/09 05:02:54;;;;;;;6.40;4.73;;;20.30;99.90;;;;;;5013000;28;20484;-88
2023/07/09 05:05:40;;;;;;;4.70;4.30;;;20.50;1.00;;;;;;5001366;28;20516;-87
2023/07/09 05:11:50;;;;;;;7.23;6.50;;;20.20;1.00;;;;;;4978744;28;20468;-89
2023/07/09 05:14:33;;;;;;;4.70;4.30;;;19.40;99.90;;;;;;5012258;28;20987;-89
2023/07/09 05:17:11;;;;;;;9.07;4.90;;;;;;;;;;5011743;28;20475;-89
2023/07/09 05:19:56;;;;;;;5.73;4.33;;;20.50;99.90;;;;;;5016529;28;20479;-89
2023/07/09 05:22:44;;;;;;;8.20;4.33;;;;;;;;;;5011961;28;20529;-89
2023/07/09 05:25:19;;;;;;;5.37;4.87;;;20.60;99.90;;;;;;5018886;28;20452;-89
2023/07/09 05:27:59;;;;;;;5.50;4.40;;;20.70;99.90;;;;;;5019013;28;20443;-89
2023/07/09 05:30:34;;;;;;;5.20;4.17;;;20.80;99.90;;;;;;5019039;28;20447;-89
2023/07/09 05:33:57;;;;;;;5.03;4.63;;;20.90;99.90;;;;;;5008869;28;20471;-89
2023/07/09 05:40:16;;;;;;;5.03;4.50;;;21.00;99.90;;;;;;4996691;28;20457;-89
2023/07/09 05:43:09;;;;;;;4.83;4.30;;;21.00;99.90;;;;;;4999174;28;20487;-89
2023/07/09 05:49:35;;;;;;;3.73;3.53;;;21.30;99.90;;;;;;4984988;28;20447;-89
2023/07/09 06:05:48;;;;;;;6.77;4.70;;;21.60;99.90;;;;;;5002837;28;20443;-89
2023/07/09 06:08:16;;;;;;;4.63;4.30;;;21.60;99.90;;;;;;5019110;23;20518;-89
2023/07/09 06:10:52;;;;;;;5.23;4.40;;;21.80;99.90;;;;;;5023512;28;20470;-89
2023/07/09 06:13:20;;;;;;;5.10;4.70;;;21.90;99.90;;;;;;5021438;28;20441;-89
2023/07/09 06:15:47;;;;;;;4.90;4.17;;;21.90;99.90;;;;;;5021804;28;20451;-89
2023/07/09 06:18:14;;;;;;;6.17;5.03;;;21.90;99.90;;;;;;5030390;28;20459;-90
2023/07/09 06:20:41;;;;;;;5.97;5.20;;;22.40;1.00;;;;;;5037839;28;20451;-90
2023/07/09 06:23:08;;;;;;;6.70;5.10;;;22.00;99.90;;;;;;5019937;28;20518;-90
2023/07/09 06:25:42;;;;;;;10.43;5.27;;;22.10;1.00;;;;;;5057778;23;20444;-90
2023/07/09 06:28:17;;;;;;;6.37;5.40;;;;;;;;;;5038138;28;20478;-90
2023/07/09 06:30:47;;;;;;;7.70;4.70;;;22.30;99.90;;;;;;5030408;28;20471;-90
2023/07/09 06:33:17;;;;;;;4.33;3.93;;;22.30;99.90;;;;;;5024062;28;20447;-90
2023/07/09 06:35:48;;;;;;;4.57;4.27;;;22.50;99.90;;;;;;5030344;28;20436;-90
2023/07/09 06:38:16;;;;;;;5.77;5.27;;;22.50;99.90;;;;;;5028161;28;20470;-90
2023/07/09 06:40:44;;;;;;;12.27;11.07;;;22.50;99.90;;;;;;5035594;28;20486;-89
2023/07/09 06:43:12;;;;;;;5.37;4.97;;;;;;;;;;5029603;28;20501;-90
2023/07/09 06:45:39;;;;;;;5.70;5.30;;;22.70;1.00;;;;;;5027945;28;20490;-90
2023/07/09 06:48:06;;;;;;;6.90;4.53;;;22.80;99.90;;;;;;5021948;28;20562;-89
2023/07/09 06:50:34;;;;;;;5.37;4.90;;;22.90;99.90;;;;;;5021672;28;20475;-90
2023/07/09 06:53:02;;;;;;;5.50;5.07;;;23.00;99.90;;;;;;5021239;28;20940;-90
2023/07/09 06:55:29;;;;;;;5.80;5.30;;;23.00;99.90;;;;;;5025259;28;20455;-90
2023/07/09 06:57:57;;;;;;;6.47;5.87;;;23.10;99.90;;;;;;5024556;28;20982;-90
2023/07/09 07:00:26;;;;;;;15.00;13.40;;;23.20;99.90;;;;;;5027185;28;20461;-90
2023/07/09 07:02:53;;;;;;;12.27;10.60;;;;;;;;;;5024386;28;20941;-89
2023/07/09 07:05:20;;;;;;;6.90;6.30;;;23.30;99.90;;;;;;5025648;28;20443;-89
2023/07/09 07:07:47;;;;;;;9.03;8.10;;;23.40;99.90;;;;;;5029935;28;21038;-90
2023/07/09 07:10:14;;;;;;;6.17;5.67;;;;;;;;;;5026233;28;20450;-91
2023/07/09 07:12:44;;;;;;;5.80;5.30;;;23.50;99.90;;;;;;5028610;28;20474;-90
2023/07/09 07:15:14;;;;;;;7.57;5.90;;;23.50;99.90;;;;;;5026234;28;20447;-90
2023/07/09 07:17:41;;;;;;;5.00;4.60;;;;;;;;;;5026602;28;20534;-91
2023/07/09 07:20:10;;;;;;;5.80;4.83;;;23.70;99.90;;;;;;5025849;28;20542;-90
2023/07/09 07:22:38;;;;;;;22.00;18.97;;;23.80;99.90;;;;;;5024939;28;20964;-89
2023/07/09 07:25:06;;;;;;;7.37;6.40;;;23.80;99.90;;;;;;5024653;28;20511;-90
2023/07/09 07:27:33;;;;;;;6.80;6.10;;;23.90;99.90;;;;;;5040331;28;20470;-91
2023/07/09 07:30:00;;;;;;;7.13;5.97;;;24.30;1.00;;;;;;5041340;28;20431;-89
2023/07/09 07:32:28;;;;;;;5.50;4.90;;;24.00;99.90;;;;;;5029196;28;20450;-90
2023/07/09 07:34:55;;;;;;;5.47;5.00;;;24.10;99.90;;;;;;5025763;28;20468;-90
2023/07/09 07:37:22;;;;;;;10.23;9.13;;;24.20;99.90;;;;;;5023795;28;20468;-90
2023/07/09 07:39:50;;;;;;;6.73;6.10;;;24.30;99.90;;;;;;5023935;28;20452;-90
2023/07/09 07:42:16;;;;;;;6.27;5.67;;;24.30;99.90;;;;;;5024975;28;20457;-88
2023/07/09 07:44:43;;;;;;;7.57;5.93;;;24.40;99.90;;;;;;5024189;28;20487;-89
2023/07/09 07:47:11;;;;;;;8.00;6.50;;;24.50;99.90;;;;;;5023722;28;20463;-88
2023/07/09 07:49:40;;;;;;;9.57;8.60;;;24.50;99.90;;;;;;5024396;28;20550;-90
2023/07/09 07:52:10;;;;;;;5.43;5.03;;;24.80;99.90;;;;;;5023622;28;20866;-91
2023/07/09 07:54:37;;;;;;;4.93;4.50;;;24.60;99.90;;;;;;5028650;28;20455;-90
2023/07/09 07:57:04;;;;;;;10.53;9.13;;;;;;;;;;5040787;28;20487;-92
2023/07/09 07:59:34;;;;;;;5.83;5.30;;;24.80;1.00;;;;;;5040782;28;20443;-90
2023/07/09 08:02:01;;;;;;;6.60;4.80;;;24.70;99.90;;;;;;5034092;28;20820;-91
2023/07/09 08:04:28;;;;;;;4.93;4.53;;;24.80;99.90;;;;;;5022647;28;20479;-90
2023/07/09 08:06:56;;;;;;;11.00;9.63;;;24.90;99.90;;;;;;5021670;28;20529;-89
2023/07/09 08:09:23;;;;;;;12.27;10.40;;;25.00;99.90;;;;;;5022160;28;20499;-90
2023/07/09 08:11:50;;;;;;;6.30;5.70;;;25.00;99.90;;;;;;5023629;28;20530;-90
2023/07/09 08:14:18;;;;;;;4.63;4.33;;;25.10;99.90;;;;;;5023282;28;20478;-92
2023/07/09 08:16:45;;;;;;;5.07;4.67;;;;;;;;;;5027077;28;20671;-88
2023/07/09 08:19:12;;;;;;;8.80;7.90;;;25.30;1.00;;;;;;5029219;28;20487;-90
2023/07/09 08:21:39;;;;;;;7.53;5.67;;;25.30;99.90;;;;;;5022716;28;20521;-90
2023/07/09 08:24:07;;;;;;;8.60;4.63;;;25.40;99.90;;;;;;5023296;28;20510;-89
2023/07/09 08:26:37;;;;;;;5.50;5.03;;;25.50;99.90;;;;;;5024437;28;20551;-90
2023/07/09 08:29:05;;;;;;;5.80;5.30;;;;;;;;;;5036065;28;20448;-90
2023/07/09 08:31:32;;;;;;;6.80;5.20;;;25.60;99.90;;;;;;5034034;28;20432;-89
2023/07/09 08:33:59;;;;;;;5.47;4.97;;;25.40;1.00;;;;;;5037162;28;20498;-91
2023/07/09 08:36:26;;;;;;;5.60;5.07;;;25.70;99.90;;;;;;5036434;28;20478;-89
2023/07/09 08:38:53;;;;;;;6.37;5.70;;;;;;;;;;5030490;28;20443;-91
2023/07/09 08:41:33;;;;;;;6.10;4.50;;;25.80;99.90;;;;;;5033059;28;20466;-91
2023/07/09 08:44:10;;;;;;;5.23;4.83;;;25.80;99.90;;;;;;5032946;28;20486;-91
2023/07/09 08:46:59;;;;;;;5.50;5.00;;;25.90;99.90;;;;;;5025961;28;20571;-90
2023/07/09 08:49:38;;;;;;;5.73;5.13;;;25.90;99.90;;;;;;5023155;28;20446;-90
2023/07/09 08:52:14;;;;;;;12.93;11.73;;;26.00;99.90;;;;;;5024848;28;20442;-88
2023/07/09 08:54:43;;;;;;;6.90;6.30;;;26.10;99.90;;;;;;5022482;28;20836;-89
2023/07/09 08:57:20;;;;;;;7.13;5.80;;;26.20;99.90;;;;;;5019892;28;20538;-89
2023/07/09 08:59:48;;;;;;;6.13;5.63;;;26.20;99.90;;;;;;5019698;28;20519;-88
2023/07/09 09:02:26;;;;;;;5.57;5.07;;;26.30;99.90;;;;;;5019429;28;20478;-89
2023/07/09 09:04:53;;;;;;;5.50;5.00;;;26.30;99.90;;;;;;5020254;28;20476;-89
2023/07/09 09:07:32;;;;;;;5.50;4.97;;;26.40;99.90;;;;;;5019257;28;20567;-90
2023/07/09 09:10:02;;;;;;;6.60;5.53;;;26.90;1.00;;;;;;5029930;28;20470;-91
2023/07/09 09:12:36;;;;;;;6.20;4.77;;;26.60;99.90;;;;;;5019837;28;20444;-88
2023/07/09 09:15:11;;;;;;;4.60;4.20;;;26.70;99.90;;;;;;5021848;28;20459;-89
2023/07/09 09:17:40;;;;;;;6.00;5.47;;;26.70;99.90;;;;;;5024280;28;20499;-90
2023/07/09 09:20:11;;;;;;;4.73;3.50;;;26.80;99.90;;;;;;5023429;28;20458;-90
2023/07/09 09:22:45;;;;;;;5.17;4.77;;;26.90;99.90;;;;;;5021461;28;20431;-88
2023/07/09 09:25:22;;;;;;;5.53;5.03;;;26.90;99.90;;;;;;5032826;28;20470;-90
2023/07/09 09:27:51;;;;;;;5.60;5.10;;;26.80;1.00;;;;;;5036830;28;20518;-89
2023/07/09 09:30:23;;;;;;;4.60;4.30;;;27.00;99.90;;;;;;5034226;28;20535;-89
2023/07/09 09:32:54;;;;;;;4.87;4.47;;;27.40;1.00;;;;;;5020819;28;20448;-89
2023/07/09 09:35:26;;;;;;;4.77;4.30;;;27.20;99.90;;;;;;5021647;28;20436;-90
2023/07/09 09:37:54;;;;;;;5.00;4.60;;;27.20;99.90;;;;;;5020408;28;20889;-89
2023/07/09 09:40:23;;;;;;;4.80;4.30;;;;;;;;;;5019204;28;20498;-89
2023/07/09 09:42:53;;;;;;;5.03;4.50;;;27.20;99.90;;;;;;5025289;28;20459;-89
2023/07/09 09:45:22;;;;;;;5.87;5.40;;;27.20;99.90;;;;;;5019937;28;20471;-89
2023/07/09 09:47:50;;;;;;;7.47;4.70;;;27.30;99.90;;;;;;5018674;28;20562;-89
2023/07/09 09:50:18;;;;;;;4.57;4.17;;;27.10;1.00;;;;;;5019220;28;20451;-89
2023/07/09 09:52:47;;;;;;;5.17;4.47;;;27.40;99.90;;;;;;5030867;28;20507;-90
2023/07/09 09:55:19;;;;;;;4.80;4.40;;;27.50;99.90;;;;;;5029702;28;20808;-89
2023/07/09 09:57:52;;;;;;;7.33;5.03;;;27.50;99.90;;;;;;5038204;28;20471;-90
2023/07/09 10:00:24;;;;;;;4.30;4.00;;;27.60;99.90;;;;;;5036302;28;20467;-90
2023/07/09 10:02:52;;;;;;;7.03;5.73;;;;;;;;;;5024167;28;20448;-89
2023/07/09 10:05:26;;;;;;;6.23;5.10;;;27.70;99.90;;;;;;5022523;28;20506;-90
2023/07/09 10:08:02;;;;;;;5.17;4.70;;;27.80;99.90;;;;;;5019950;28;20467;-89
2023/07/09 10:10:33;;;;;;;5.20;4.80;;;27.80;99.90;;;;;;5021492;28;20835;-89
2023/07/09 10:13:08;;;;;;;4.50;4.20;;;27.80;99.90;;;;;;5021060;28;20993;-89
2023/07/09 10:15:43;;;;;;;4.80;4.33;;;27.80;99.90;;;;;;5022605;28;20447;-89
2023/07/09 10:18:22;;;;;;;4.50;4.13;;;28.90;99.90;;;;;;5032792;28;20490;-90
2023/07/09 10:20:59;;;;;;;7.70;7.00;;;27.90;99.90;;;;;;5030340;28;20439;-90
2023/07/09 10:23:33;;;;;;;9.23;8.07;;;28.20;1.00;;;;;;5037285;28;20989;-90
2023/07/09 10:26:11;;;;;;;9.03;5.50;;;27.90;99.90;;;;;;5038041;28;20474;-90
2023/07/09 10:29:06;;;;;;;5.77;5.27;;;28.00;99.90;;;;;;5035232;28;20459;-89
2023/07/09 10:31:44;;;;;;;5.57;5.10;;;28.10;99.90;;;;;;5031166;28;20862;-88
2023/07/09 10:34:21;;;;;;;7.03;5.20;;;28.10;99.90;;;;;;5039131;28;20518;-90
2023/07/09 10:37:21;;;;;;;5.03;4.63;;;28.10;99.90;;;;;;5038381;28;20451;-90
2023/07/09 10:39:50;;;;;;;5.50;4.87;;;27.80;1.00;;;;;;5041675;28;20442;-88
2023/07/09 10:42:23;;;;;;;5.93;5.33;;;28.20;99.90;;;;;;5027126;28;20567;-90
2023/07/09 10:44:58;;;;;;;5.50;4.70;;;28.30;99.90;;;;;;5026629;28;20503;-90
2023/07/09 10:47:31;;;;;;;6.70;6.10;;;28.30;99.90;;;;;;5026209;28;20644;-91
2023/07/09 10:49:59;;;;;;;5.23;4.73;;;28.30;99.90;;;;;;5026373;28;20439;-89
2023/07/09 10:52:30;;;;;;;8.23;5.33;;;28.30;99.90;;;;;;5036456;28;20459;-90
2023/07/09 10:55:05;;;;;;;5.27;4.77;;;28.40;99.90;;;;;;5040472;28;20435;-92
2023/07/09 10:57:42;;;;;;;5.90;5.40;;;28.40;99.90;;;;;;5037837;28;20478;-90
2023/07/09 11:00:15;;;;;;;6.80;5.73;;;28.50;99.90;;;;;;5026422;28;20459;-90
2023/07/09 11:02:45;;;;;;;6.63;5.07;;;28.50;99.90;;;;;;5029034;28;20442;-90
2023/07/09 11:05:12;;;;;;;5.77;5.27;;;28.50;99.90;;;;;;5036379;28;20550;-90
2023/07/09 11:07:45;;;;;;;5.50;5.00;;;28.50;99.90;;;;;;5041095;28;20471;-90
2023/07/09 11:10:20;;;;;;;6.57;5.53;;;28.60;99.90;;;;;;5041560;28;20432;-90
2023/07/09 11:12:56;;;;;;;5.83;5.33;;;28.60;99.90;;;;;;5041457;28;20428;-90
2023/07/09 11:15:28;;;;;;;9.20;4.70;;;28.80;99.90;;;;;;5040969;28;20443;-90
2023/07/09 11:18:00;;;;;;;6.10;5.50;;;28.70;99.90;;;;;;5040470;28;20486;-90
2023/07/09 11:20:34;;;;;;;5.33;4.83;;;28.70;99.90;;;;;;5034543;28;20436;-90
2023/07/09 11:23:11;;;;;;;6.20;5.27;;;28.80;1.00;;;;;;5035071;28;20491;-90
2023/07/09 11:25:45;;;;;;;5.90;5.40;;;28.40;1.00;;;;;;5012694;28;20645;-90
2023/07/09 11:28:12;;;;;;;6.80;6.20;;;28.80;99.90;;;;;;5027770;28;20546;-91
2023/07/09 11:30:52;;;;;;;5.80;5.20;;;28.80;99.90;;;;;;5027454;28;20446;-90
2023/07/09 11:33:26;;;;;;;6.00;5.40;;;28.80;1.00;;;;;;5026455;28;20570;-90
2023/07/09 11:35:55;;;;;;;6.10;5.60;;;29.00;99.90;;;;;;5027485;28;20483;-90
2023/07/09 11:38:27;;;;;;;5.70;5.20;;;29.00;99.90;;;;;;5025747;28;20464;-90
2023/07/09 11:40:56;;;;;;;6.00;5.07;;;29.00;99.90;;;;;;5027085;28;20456;-89
2023/07/09 11:43:33;;;;;;;6.03;5.33;;;29.00;99.90;;;;;;5029466;28;20479;-91
2023/07/09 11:46:11;;;;;;;6.13;5.43;;;29.10;99.90;;;;;;5025853;28;20435;-90
2023/07/09 11:48:40;;;;;;;5.60;5.10;;;29.20;1.00;;;;;;5032431;28;20452;-90
2023/07/09 11:51:14;;;;;;;6.10;5.60;;;29.00;99.90;;;;;;5037821;28;20507;-90
2023/07/09 11:53:47;;;;;;;8.53;5.87;;;29.10;99.90;;;;;;5034147;28;20436;-90
2023/07/09 11:56:16;;;;;;;7.27;6.77;;;;;;;;;;5027176;28;20413;-90
2023/07/09 11:58:50;;;;;;;8.30;7.27;;;29.10;99.90;;;;;;5024182;28;20474;-90
2023/07/09 12:01:21;;;;;;;7.50;6.80;;;29.10;99.90;;;;;;5025970;28;20458;-90
2023/07/09 12:03:50;;;;;;;7.97;7.33;;;29.20;99.90;;;;;;5023853;28;20442;-89
2023/07/09 12:06:21;;;;;;;7.27;6.57;;;29.20;99.90;;;;;;5022378;28;20463;-90
2023/07/09 12:08:50;;;;;;;7.87;7.07;;;29.40;99.90;;;;;;5005058;28;20453;-90
2023/07/09 12:11:22;;;;;;;7.03;5.67;;;29.10;1.00;;;;;;5031012;28;20534;-90
2023/07/09 12:13:49;;;;;;;6.87;6.17;;;29.50;99.90;;;;;;5022479;28;20526;-90
2023/07/09 12:16:26;;;;;;;6.40;6.00;;;29.70;1.00;;;;;;5024027;28;20542;-89
2023/07/09 12:18:53;;;;;;;7.13;6.43;;;29.50;99.90;;;;;;5022352;28;20458;-89
2023/07/09 12:21:21;;;;;;;6.50;5.80;;;29.40;99.90;;;;;;5022873;28;20828;-90
2023/07/09 12:23:49;;;;;;;6.43;5.93;;;29.40;99.90;;;;;;5025475;28;20436;-90
2023/07/09 12:26:19;;;;;;;7.60;6.90;;;29.40;99.90;;;;;;5027041;28;20951;-91
2023/07/09 12:29:01;;;;;;;7.70;7.03;;;29.40;99.90;;;;;;5039860;28;20451;-90
2023/07/09 12:31:31;;;;;;;7.23;6.53;;;29.40;99.90;;;;;;5036671;28;20448;-91
2023/07/09 12:34:00;;;;;;;7.33;6.73;;;29.50;99.90;;;;;;5024505;28;20440;-90
2023/07/09 12:36:28;;;;;;;7.00;6.30;;;29.50;99.90;;;;;;5026373;28;20492;-90
2023/07/09 12:39:01;;;;;;;7.67;6.80;;;29.40;99.90;;;;;;5025885;28;20515;-91
2023/07/09 12:41:33;;;;;;;8.07;7.47;;;29.50;99.90;;;;;;5023487;28;20446;-90
2023/07/09 12:44:00;;;;;;;10.33;9.30;;;29.40;1.00;;;;;;5021502;28;20499;-89
2023/07/09 12:46:29;;;;;;;16.50;14.80;;;29.60;99.90;;;;;;5022877;28;20483;-90
2023/07/09 12:48:56;;;;;;;27.63;24.53;;;29.70;99.90;;;;;;5038698;28;20447;-90
2023/07/09 12:51:27;;;;;;;10.77;8.93;;;29.70;99.90;;;;;;5034062;28;20436;-90
2023/07/09 12:54:03;;;;;;;8.20;7.03;;;29.70;99.90;;;;;;5025477;28;20796;-91
2023/07/09 12:56:30;;;;;;;16.97;15.57;;;29.60;1.00;;;;;;5031621;28;20558;-93
2023/07/09 12:58:58;;;;;;;10.03;9.20;;;29.80;99.90;;;;;;5022521;28;20501;-92
2023/07/09 13:01:25;;;;;;;7.83;7.13;;;29.80;99.90;;;;;;5028419;28;20471;-90
2023/07/09 13:03:57;;;;;;;6.97;6.37;;;29.70;99.90;;;;;;5024531;28;20483;-89
2023/07/09 13:06:30;;;;;;;6.83;6.23;;;29.70;99.90;;;;;;5022111;28;20447;-89
2023/07/09 13:08:59;;;;;;;6.63;6.03;;;29.80;99.90;;;;;;5020073;28;20454;-88
2023/07/09 13:11:32;;;;;;;6.63;6.13;;;29.80;99.90;;;;;;5019632;28;20968;-89
2023/07/09 13:14:04;;;;;;;8.43;6.80;;;29.80;99.90;;;;;;5019747;28;20432;-88
2023/07/09 13:16:38;;;;;;;6.80;6.20;;;29.80;99.90;;;;;;5020956;28;20971;-89
2023/07/09 13:19:06;;;;;;;6.53;6.03;;;29.80;99.90;;;;;;5019892;28;20515;-89
2023/07/09 13:21:33;;;;;;;7.93;7.23;;;29.80;99.90;;;;;;5038802;28;20519;-90
2023/07/09 13:24:00;;;;;;;6.43;5.90;;;29.80;99.90;;;;;;5038020;28;20458;-89
2023/07/09 13:26:27;;;;;;;7.00;6.30;;;29.80;99.90;;;;;;5022495;28;20575;-89
2023/07/09 13:28:54;;;;;;;6.40;5.90;;;29.80;99.90;;;;;;5028691;28;20467;-90
2023/07/09 13:31:21;;;;;;;6.23;5.60;;;29.90;99.90;;;;;;5028965;28;20502;-89
2023/07/09 13:33:53;;;;;;;6.73;6.10;;;29.90;99.90;;;;;;5019092;28;20529;-91
2023/07/09 13:36:21;;;;;;;7.07;6.00;;;30.20;1.00;;;;;;5018900;28;20432;-90
2023/07/09 13:38:48;;;;;;;7.40;5.90;;;30.00;99.90;;;;;;5020349;28;20866;-89
2023/07/09 13:41:17;;;;;;;7.90;7.10;;;30.00;99.90;;;;;;5018635;28;20509;-90
2023/07/09 13:43:46;;;;;;;6.70;6.07;;;30.00;99.90;;;;;;5020982;28;20463;-90
2023/07/09 13:46:13;;;;;;;8.70;7.73;;;29.70;1.00;;;;;;5023939;28;20479;-90
2023/07/09 13:48:42;;;;;;;6.00;5.60;;;30.10;99.90;;;;;;5028303;28;20868;-89
2023/07/09 13:51:16;;;;;;;7.80;7.10;;;30.10;99.90;;;;;;5027270;28;20446;-91
2023/07/09 13:53:44;;;;;;;7.03;6.20;;;30.20;1.00;;;;;;5024474;28;20467;-90
2023/07/09 13:56:11;;;;;;;6.07;5.60;;;30.10;99.90;;;;;;5022864;28;20785;-90
2023/07/09 13:58:38;;;;;;;7.27;6.70;;;30.20;99.90;;;;;;5019330;28;20880;-90
2023/07/09 14:01:12;;;;;;;6.70;6.07;;;30.20;99.90;;;;;;5017926;28;20455;-90
2023/07/09 14:03:39;;;;;;;6.00;5.60;;;30.10;99.90;;;;;;5019910;28;20499;-90
2023/07/09 14:06:09;;;;;;;6.47;5.87;;;30.40;1.00;;;;;;5017891;28;20997;-90
2023/07/09 14:08:36;;;;;;;6.43;5.83;;;30.20;99.90;;;;;;5019522;28;20513;-90
2023/07/09 14:11:08;;;;;;;8.30;6.20;;;30.20;99.90;;;;;;5019301;28;20489;-90
2023/07/09 14:13:35;;;;;;;6.17;5.67;;;30.10;1.00;;;;;;5020605;28;20439;-89
2023/07/09 14:16:03;;;;;;;6.67;6.07;;;30.20;99.90;;;;;;5022982;28;20463;-90
2023/07/09 14:18:29;;;;;;;6.47;5.97;;;30.30;99.90;;;;;;5034852;28;20455;-90
2023/07/09 14:20:57;;;;;;;6.33;5.83;;;30.20;99.90;;;;;;5036494;28;20454;-90
2023/07/09 14:23:24;;;;;;;6.27;5.67;;;30.30;99.90;;;;;;5037553;28;20515;-90
2023/07/09 14:25:50;;;;;;;7.10;6.50;;;30.30;99.90;;;;;;5024211;28;20483;-90
2023/07/09 14:28:21;;;;;;;7.00;6.30;;;30.30;99.90;;;;;;5033590;28;20494;-90
2023/07/09 14:30:50;;;;;;;6.60;5.97;;;30.30;99.90;;;;;;5030036;28;20492;-90
2023/07/09 14:33:18;;;;;;;11.40;5.80;;;30.30;99.90;;;;;;5018643;28;20453;-90
2023/07/09 14:35:46;;;;;;;6.17;5.57;;;30.30;99.90;;;;;;5018886;28;20471;-90
2023/07/09 14:38:17;;;;;;;6.00;5.40;;;30.30;99.90;;;;;;5019126;28;20535;-90
2023/07/09 14:40:45;;;;;;;7.10;6.20;;;30.30;99.90;;;;;;5018241;28;20532;-88
2023/07/09 14:43:12;;;;;;;6.20;5.63;;;;;;;;;;5018919;28;20455;-88
2023/07/09 14:45:41;;;;;;;6.60;6.07;;;30.30;99.90;;;;;;5018056;28;20561;-90
2023/07/09 14:48:13;;;;;;;6.17;5.57;;;30.30;99.90;;;;;;5018230;28;20890;-90
2023/07/09 14:50:41;;;;;;;7.73;6.40;;;30.20;99.90;;;;;;5017681;28;20510;-89
2023/07/09 14:53:15;;;;;;;6.53;5.93;;;30.30;99.90;;;;;;5020261;28;20501;-90
2023/07/09 14:55:44;;;;;;;5.50;5.10;;;30.30;99.90;;;;;;5029423;28;20430;-90
2023/07/09 14:58:16;;;;;;;8.30;6.87;;;30.20;99.90;;;;;;5031590;28;20452;-90
2023/07/09 15:00:46;;;;;;;7.83;6.63;;;30.20;99.90;;;;;;5035372;28;20436;-90
2023/07/09 15:03:20;;;;;;;7.10;6.50;;;30.20;99.90;;;;;;5019056;28;20448;-91